createdAt,value
2022-09-10T00:01:47.729Z,9.18
2022-09-10T00:04:18.717Z,9.52
2022-09-10T00:06:48.065Z,8.68
2022-09-10T00:09:18.391Z,11.55
2022-09-10T00:11:48.800Z,15.55
2022-09-10T00:14:23.170Z,11.05
2022-09-10T00:16:52.774Z,10.35
2022-09-10T00:19:23.245Z,12.52
2022-09-10T00:21:52.550Z,10.75
2022-09-10T00:24:23.605Z,14.00
2022-09-10T00:26:52.856Z,10.45
2022-09-10T00:29:22.165Z,13.23
2022-09-10T00:31:51.265Z,10.95
2022-09-10T00:34:20.452Z,10.02
2022-09-10T00:36:49.704Z,13.68
2022-09-10T00:39:21.452Z,13.10
2022-09-10T00:41:51.351Z,10.02
2022-09-10T00:44:57.171Z,11.20
2022-09-10T00:47:41.160Z,10.00
2022-09-10T00:50:35.897Z,13.63
2022-09-10T00:53:11.614Z,13.23
2022-09-10T00:55:45.239Z,7.07
2022-09-10T00:58:16.571Z,8.13
2022-09-10T01:00:45.961Z,8.05
2022-09-10T01:03:24.858Z,11.82
2022-09-10T01:05:55.561Z,8.70
2022-09-10T01:08:24.981Z,7.28
2022-09-10T01:11:34.745Z,9.90
2022-09-10T01:14:40.198Z,5.80
2022-09-10T01:17:53.474Z,14.68
2022-09-10T01:20:49.970Z,7.57
2022-09-10T01:23:59.205Z,5.93
2022-09-10T01:27:12.407Z,5.63
2022-09-10T01:30:28.233Z,8.15
2022-09-10T01:33:24.958Z,12.35
2022-09-10T01:36:14.074Z,6.97
2022-09-10T01:38:44.025Z,10.77
2022-09-10T01:41:15.012Z,14.65
2022-09-10T01:43:44.523Z,6.90
2022-09-10T01:47:00.425Z,8.63
2022-09-10T01:49:59.639Z,11.65
2022-09-10T01:53:13.211Z,7.05
2022-09-10T01:56:25.934Z,6.03
2022-09-10T01:59:10.289Z,11.32
2022-09-10T02:01:52.842Z,5.07
2022-09-10T02:04:24.382Z,5.28
2022-09-10T02:06:54.358Z,6.55
2022-09-10T02:09:24.468Z,3.55
2022-09-10T02:11:57.964Z,5.97
2022-09-10T02:14:27.935Z,6.25
2022-09-10T02:17:01.413Z,5.68
2022-09-10T02:19:30.773Z,7.90
2022-09-10T02:22:02.086Z,5.80
2022-09-10T02:24:31.294Z,9.18
2022-09-10T02:27:01.794Z,9.90
2022-09-10T02:29:31.082Z,7.00
2022-09-10T02:32:00.933Z,5.38
2022-09-10T02:34:31.733Z,5.75
2022-09-10T02:37:01.180Z,7.50
2022-09-10T02:39:31.006Z,12.15
2022-09-10T02:42:00.768Z,14.63
2022-09-10T02:44:30.309Z,10.73
2022-09-10T02:46:59.806Z,8.63
2022-09-10T02:49:29.382Z,13.23
2022-09-10T02:51:58.678Z,10.65
2022-09-10T02:54:27.951Z,3.05
2022-09-10T02:56:57.928Z,5.82
2022-09-10T02:59:27.458Z,10.02
2022-09-10T03:01:57.410Z,5.57
2022-09-10T03:04:26.701Z,7.05
2022-09-10T03:06:56.465Z,5.40
2022-09-10T03:09:29.941Z,6.90
2022-09-10T03:12:00.731Z,9.38
2022-09-10T03:14:31.421Z,6.30
2022-09-10T03:17:01.308Z,6.80
2022-09-10T03:19:30.497Z,12.18
2022-09-10T03:21:59.749Z,6.28
2022-09-10T03:24:29.620Z,11.40
2022-09-10T03:26:59.292Z,5.63
2022-09-10T03:29:31.124Z,12.48
2022-09-10T03:32:00.389Z,7.65
2022-09-10T03:34:29.561Z,5.75
2022-09-10T03:36:58.776Z,6.95
2022-09-10T03:39:27.948Z,5.63
2022-09-10T03:42:04.283Z,10.88
2022-09-10T03:44:34.722Z,6.13
2022-09-10T03:47:04.335Z,8.38
2022-09-10T03:49:33.820Z,8.73
2022-09-10T03:52:03.824Z,11.63
2022-09-10T03:54:33.061Z,6.80
2022-09-10T03:57:03.635Z,5.18
2022-09-10T03:59:33.062Z,7.40
2022-09-10T04:02:04.087Z,11.05
2022-09-10T04:04:34.043Z,15.38
2022-09-10T04:07:03.357Z,6.18
2022-09-10T04:09:33.600Z,5.13
2022-09-10T04:12:04.808Z,6.82
2022-09-10T04:14:35.498Z,22.20
2022-09-10T04:17:04.871Z,7.78
2022-09-10T04:19:34.181Z,3.38
2022-09-10T04:22:04.225Z,4.60
2022-09-10T04:24:33.480Z,7.07
2022-09-10T04:27:02.758Z,5.47
2022-09-10T04:29:33.429Z,8.10
2022-09-10T04:32:02.763Z,13.43
2022-09-10T04:34:31.962Z,7.72
2022-09-10T04:37:01.415Z,8.45
2022-09-10T04:39:31.036Z,6.18
2022-09-10T04:42:00.378Z,6.07
2022-09-10T04:44:30.602Z,10.65
2022-09-10T04:46:59.854Z,6.43
2022-09-10T04:49:29.038Z,5.70
2022-09-10T04:51:58.517Z,5.30
2022-09-10T04:54:27.695Z,7.07
2022-09-10T04:56:57.078Z,6.47
2022-09-10T04:59:26.309Z,7.65
2022-09-10T05:01:55.939Z,2.95
2022-09-10T05:04:25.935Z,8.55
2022-09-10T05:06:55.287Z,7.97
2022-09-10T05:09:24.498Z,14.77
2022-09-10T05:11:54.139Z,6.38
2022-09-10T05:14:24.352Z,5.55
2022-09-10T05:16:53.814Z,5.53
2022-09-10T05:19:23.535Z,9.60
2022-09-10T05:21:55.618Z,9.90
2022-09-10T05:24:25.009Z,4.93
2022-09-10T05:26:54.316Z,13.73
2022-09-10T05:29:23.721Z,7.60
2022-09-10T05:31:53.051Z,5.63
2022-09-10T05:34:22.405Z,2.50
2022-09-10T05:36:51.679Z,9.02
2022-09-10T05:39:21.356Z,10.88
2022-09-10T05:41:50.695Z,6.25
2022-09-10T05:44:20.159Z,5.53
2022-09-10T05:46:49.557Z,4.68
2022-09-10T05:49:18.740Z,8.10
2022-09-10T05:51:56.787Z,5.03
2022-09-10T05:56:55.238Z,8.93
2022-09-10T05:59:24.443Z,10.05
2022-09-10T06:01:53.843Z,6.40
2022-09-10T06:04:23.411Z,6.18
2022-09-10T06:06:52.620Z,5.78
2022-09-10T06:09:22.017Z,2.08
2022-09-10T06:11:52.043Z,11.00
2022-09-10T06:14:21.927Z,4.47
2022-09-10T06:16:51.026Z,3.65
2022-09-10T06:19:20.946Z,9.18
2022-09-10T06:21:55.486Z,9.60
2022-09-10T06:24:25.607Z,7.18
2022-09-10T06:26:54.924Z,7.50
2022-09-10T06:29:24.240Z,6.40
2022-09-10T06:31:53.464Z,9.68
2022-09-10T06:34:23.218Z,8.05
2022-09-10T06:36:52.693Z,4.22
2022-09-10T06:39:22.001Z,8.38
2022-09-10T06:41:51.316Z,14.63
2022-09-10T06:44:23.349Z,4.82
2022-09-10T06:47:46.209Z,13.13
2022-09-10T06:49:45.119Z,5.00
2022-09-10T06:52:14.366Z,3.35
2022-09-10T06:54:43.702Z,7.00
2022-09-10T06:57:13.048Z,18.40
2022-09-10T06:59:42.456Z,4.78
2022-09-10T07:02:12.596Z,2.00
2022-09-10T07:04:41.829Z,3.70
2022-09-10T07:07:11.168Z,6.97
2022-09-10T07:09:40.417Z,5.47
2022-09-10T07:12:13.671Z,6.50
2022-09-10T07:14:42.895Z,8.18
2022-09-10T07:17:12.109Z,3.58
2022-09-10T07:19:41.437Z,6.85
2022-09-10T07:22:10.852Z,10.40
2022-09-10T07:24:40.172Z,2.22
2022-09-10T07:27:12.069Z,10.38
2022-09-10T07:29:41.364Z,4.57
2022-09-10T07:32:13.367Z,4.93
2022-09-10T07:34:42.913Z,8.48
2022-09-10T07:37:12.588Z,4.63
2022-09-10T07:39:41.810Z,8.43
2022-09-10T07:42:12.789Z,3.50
2022-09-10T07:44:41.993Z,5.03
2022-09-10T07:47:11.353Z,6.22
2022-09-10T07:49:40.670Z,12.05
2022-09-10T07:52:09.944Z,7.28
2022-09-10T07:54:39.525Z,10.63
2022-09-10T07:57:08.772Z,5.15
2022-09-10T07:59:38.232Z,6.88
2022-09-10T08:02:07.533Z,3.83
2022-09-10T08:04:38.685Z,5.90
2022-09-10T08:07:07.872Z,9.40
2022-09-10T08:09:37.039Z,3.45
2022-09-10T08:12:08.727Z,6.30
2022-09-10T08:14:39.449Z,4.68
2022-09-10T08:17:09.220Z,13.77
2022-09-10T08:19:38.418Z,14.65
2022-09-10T08:22:13.178Z,19.52
2022-09-10T08:24:42.814Z,8.77
2022-09-10T08:27:12.629Z,12.82
2022-09-10T08:29:41.851Z,8.15
2022-09-10T08:32:14.214Z,7.22
2022-09-10T08:34:43.481Z,10.63
2022-09-10T08:37:13.505Z,10.30
2022-09-10T08:39:42.742Z,12.77
2022-09-10T08:42:47.460Z,3.60
2022-09-10T08:45:30.238Z,4.07
2022-09-10T08:48:22.486Z,8.57
2022-09-10T08:51:28.643Z,5.57
2022-09-10T08:54:23.807Z,2.88
2022-09-10T08:56:59.561Z,6.22
2022-09-10T08:59:43.190Z,5.50
2022-09-10T09:02:51.367Z,5.32
2022-09-10T09:05:24.680Z,8.55
2022-09-10T09:07:55.818Z,6.60
2022-09-10T09:10:59.595Z,20.95
2022-09-10T09:14:03.663Z,8.68
2022-09-10T09:17:20.778Z,1.63
2022-09-10T09:20:21.474Z,4.00
2022-09-10T09:23:21.852Z,4.53
2022-09-10T09:26:17.116Z,3.95
2022-09-10T09:29:06.519Z,4.68
2022-09-10T09:31:44.250Z,3.90
2022-09-10T09:34:48.031Z,2.47
2022-09-10T09:37:27.151Z,4.85
2022-09-10T09:40:33.269Z,4.78
2022-09-10T09:43:39.338Z,6.00
2022-09-10T09:46:19.676Z,10.77
2022-09-10T09:48:54.623Z,9.30
2022-09-10T09:51:26.773Z,12.68
2022-09-10T09:54:46.607Z,3.47
2022-09-10T09:57:03.972Z,7.65
2022-09-10T09:59:36.249Z,6.88
2022-09-10T10:02:27.139Z,7.18
2022-09-10T10:05:24.930Z,12.13
2022-09-10T10:07:54.243Z,10.82
2022-09-10T10:10:29.636Z,13.57
2022-09-10T10:12:59.738Z,5.57
2022-09-10T10:15:43.469Z,12.40
2022-09-10T10:18:32.988Z,9.63
2022-09-10T10:21:30.626Z,11.45
2022-09-10T10:24:00.216Z,16.45
2022-09-10T10:26:39.412Z,6.82
2022-09-10T10:29:22.311Z,10.73
2022-09-10T10:31:54.115Z,9.13
2022-09-10T10:35:09.175Z,9.98
2022-09-10T10:38:15.066Z,8.57
2022-09-10T10:41:22.023Z,9.55
2022-09-10T10:44:37.755Z,10.82
2022-09-10T10:47:49.807Z,9.20
2022-09-10T10:51:06.106Z,11.82
2022-09-10T10:54:26.973Z,13.18
2022-09-10T10:57:40.460Z,9.25
2022-09-10T11:00:20.882Z,6.10
2022-09-10T11:03:12.537Z,5.00
2022-09-10T11:05:54.017Z,10.93
2022-09-10T11:08:44.444Z,4.80
2022-09-10T11:11:41.909Z,7.40
2022-09-10T11:14:43.009Z,7.20
2022-09-10T11:17:49.697Z,4.63
2022-09-10T11:20:34.310Z,8.85
2022-09-10T11:23:39.142Z,4.00
2022-09-10T11:26:37.441Z,3.35
2022-09-10T11:29:51.572Z,3.50
2022-09-10T11:33:07.790Z,6.82
2022-09-10T11:35:49.365Z,5.75
2022-09-10T11:39:02.805Z,5.70
2022-09-10T11:41:37.246Z,8.65
2022-09-10T11:44:59.266Z,6.75
2022-09-10T11:47:45.562Z,4.30
2022-09-10T11:50:49.681Z,7.07
2022-09-10T11:53:23.290Z,4.53
2022-09-10T11:56:37.951Z,7.97
2022-09-10T12:00:09.139Z,8.80
2022-09-10T12:03:30.109Z,6.22
2022-09-10T12:06:30.804Z,5.60
2022-09-10T12:09:34.166Z,10.13
2022-09-10T12:12:46.888Z,9.10
2022-09-10T12:15:31.972Z,8.13
2022-09-10T12:18:24.088Z,9.18
2022-09-10T12:21:05.533Z,8.38
2022-09-10T12:23:46.117Z,7.45
2022-09-10T12:26:21.747Z,7.30
2022-09-10T12:29:02.980Z,16.55
2022-09-10T12:32:17.594Z,12.15
2022-09-10T12:34:49.504Z,10.25
2022-09-10T12:37:27.497Z,16.02
2022-09-10T12:40:40.739Z,12.52
2022-09-10T12:44:01.480Z,10.52
2022-09-10T12:46:32.587Z,7.70
2022-09-10T12:49:15.343Z,10.07
2022-09-10T12:52:04.608Z,8.85
2022-09-10T12:55:33.047Z,7.25
2022-09-10T12:58:41.390Z,10.73
2022-09-10T13:01:43.277Z,10.45
2022-09-10T13:04:36.612Z,12.07
2022-09-10T13:07:24.280Z,9.38
2022-09-10T13:10:25.181Z,8.65
2022-09-10T13:13:05.998Z,7.88
2022-09-10T13:15:54.024Z,6.88
2022-09-10T13:18:36.907Z,8.65
2022-09-10T13:21:52.768Z,10.35
2022-09-10T13:25:10.260Z,8.40
2022-09-10T13:27:42.645Z,9.15
2022-09-10T13:30:26.659Z,7.30
2022-09-10T13:33:08.659Z,12.77
2022-09-10T13:36:09.429Z,15.27
2022-09-10T13:39:22.761Z,8.55
2022-09-10T13:42:33.629Z,13.30
2022-09-10T13:45:35.104Z,8.40
2022-09-10T13:48:23.444Z,8.70
2022-09-10T13:53:56.958Z,4.85
2022-09-10T13:56:34.481Z,9.63
2022-09-10T13:59:07.155Z,11.07
2022-09-10T14:02:02.537Z,11.40
2022-09-10T14:04:44.940Z,10.73
2022-09-10T14:07:33.843Z,9.55
2022-09-10T14:10:08.285Z,8.30
2022-09-10T14:12:39.284Z,13.20
2022-09-10T14:15:18.120Z,9.73
2022-09-10T14:17:55.243Z,8.68
2022-09-10T14:20:34.922Z,7.50
2022-09-10T14:23:17.926Z,10.18
2022-09-10T14:25:47.697Z,7.38
2022-09-10T14:28:28.456Z,13.32
2022-09-10T14:31:24.676Z,15.02
2022-09-10T14:33:55.217Z,12.05
2022-09-10T14:36:35.949Z,15.05
2022-09-10T14:39:26.184Z,9.73
2022-09-10T14:42:26.249Z,9.15
2022-09-10T14:44:56.267Z,8.30
2022-09-10T14:47:38.333Z,10.77
2022-09-10T14:50:31.997Z,10.57
2022-09-10T14:53:01.548Z,7.60
2022-09-10T14:55:33.863Z,7.25
2022-09-10T14:58:03.311Z,11.02
2022-09-10T15:00:32.866Z,7.55
2022-09-10T15:03:02.604Z,8.70
2022-09-10T15:05:31.988Z,7.60
2022-09-10T15:08:01.292Z,5.45
2022-09-10T15:10:30.582Z,6.85
2022-09-10T15:13:01.215Z,6.70
2022-09-10T15:15:32.084Z,5.90
2022-09-10T15:18:01.449Z,10.07
2022-09-10T15:20:30.674Z,4.03
2022-09-10T15:23:02.227Z,10.27
2022-09-10T15:25:51.153Z,5.10
2022-09-10T15:28:23.063Z,4.00
2022-09-10T15:30:53.783Z,3.83
2022-09-10T15:33:23.150Z,4.30
2022-09-10T15:35:58.959Z,6.32
2022-09-10T15:38:28.229Z,9.88
2022-09-10T15:41:13.228Z,6.95
2022-09-10T15:43:44.731Z,8.02
2022-09-10T15:46:19.294Z,9.05
2022-09-10T15:48:49.375Z,7.53
2022-09-10T15:51:25.164Z,7.60
2022-09-10T15:53:55.855Z,6.32
2022-09-10T15:56:27.696Z,8.07
2022-09-10T15:58:59.622Z,7.43
2022-09-10T16:01:30.018Z,6.65
2022-09-10T16:04:05.078Z,14.30
2022-09-10T16:06:41.741Z,10.55
2022-09-10T16:09:14.828Z,11.18
2022-09-10T16:11:45.577Z,13.20
2022-09-10T16:14:19.566Z,10.88
2022-09-10T16:16:49.560Z,9.70
2022-09-10T16:19:19.251Z,10.00
2022-09-10T16:21:51.193Z,6.13
2022-09-10T16:24:20.734Z,10.70
2022-09-10T16:26:50.295Z,6.40
2022-09-10T16:29:21.083Z,5.90
2022-09-10T16:31:51.208Z,11.23
2022-09-10T16:34:23.251Z,10.43
2022-09-10T16:36:52.612Z,10.60
2022-09-10T16:39:23.163Z,10.18
2022-09-10T16:41:52.947Z,10.80
2022-09-10T16:44:22.158Z,14.70
2022-09-10T16:46:53.958Z,12.35
2022-09-10T16:49:23.351Z,15.05
2022-09-10T16:51:52.543Z,17.92
2022-09-10T16:54:22.426Z,24.15
2022-09-10T16:56:52.660Z,27.98
2022-09-10T16:59:26.873Z,20.45
2022-09-10T17:01:58.911Z,19.42
2022-09-10T17:04:29.920Z,17.77
2022-09-10T17:07:00.098Z,21.08
2022-09-10T17:09:29.527Z,18.63
2022-09-10T17:11:58.689Z,12.50
2022-09-10T17:14:27.874Z,15.85
2022-09-10T17:16:57.749Z,11.93
2022-09-10T17:19:27.379Z,17.23
2022-09-10T17:21:57.951Z,16.48
2022-09-10T17:24:28.849Z,15.80
2022-09-10T17:26:58.790Z,15.45
2022-09-10T17:29:28.262Z,12.18
2022-09-10T17:31:58.397Z,16.35
2022-09-10T17:34:29.117Z,14.98
2022-09-10T17:36:58.349Z,16.33
2022-09-10T17:39:29.756Z,15.93
2022-09-10T17:41:59.911Z,24.80
2022-09-10T17:44:29.248Z,27.67
2022-09-10T17:46:58.584Z,33.40
2022-09-10T17:49:27.768Z,36.15
2022-09-10T17:51:57.100Z,32.47
2022-09-10T17:54:26.370Z,25.00
2022-09-10T17:56:55.652Z,23.05
2022-09-10T17:59:26.411Z,22.35
2022-09-10T18:01:55.782Z,20.30
2022-09-10T18:04:27.420Z,13.50
2022-09-10T18:06:56.609Z,16.50
2022-09-10T18:09:27.517Z,13.57
2022-09-10T18:11:57.940Z,14.82
2022-09-10T18:14:27.231Z,19.23
2022-09-10T18:16:57.119Z,19.08
2022-09-10T18:19:26.977Z,20.70
2022-09-10T18:21:56.192Z,22.73
2022-09-10T18:24:26.067Z,23.50
2022-09-10T18:26:56.226Z,27.23
2022-09-10T18:29:31.159Z,32.53
2022-09-10T18:32:02.820Z,32.28
2022-09-10T18:34:33.489Z,35.33
2022-09-10T18:37:04.646Z,31.30
2022-09-10T18:39:35.527Z,25.65
2022-09-10T18:42:05.026Z,23.58
2022-09-10T18:44:38.069Z,23.58
2022-09-10T18:47:17.703Z,29.10
2022-09-10T18:49:58.937Z,28.27
2022-09-10T18:52:28.248Z,23.58
2022-09-10T18:54:57.694Z,25.35
2022-09-10T18:57:27.135Z,33.20
2022-09-10T18:59:56.678Z,40.95
2022-09-10T19:02:26.440Z,38.53
2022-09-10T19:05:10.630Z,38.25
2022-09-10T19:07:40.750Z,41.38
2022-09-10T19:10:10.184Z,38.75
2022-09-10T19:12:41.991Z,35.08
2022-09-10T19:15:12.717Z,41.47
2022-09-10T19:17:42.040Z,34.75
2022-09-10T19:20:11.628Z,27.45
2022-09-10T19:22:40.766Z,29.00
2022-09-10T19:25:11.786Z,26.90
2022-09-10T19:27:42.062Z,10.40
2022-09-10T19:30:12.425Z,10.70
2022-09-10T19:32:41.636Z,11.48
2022-09-10T19:35:12.419Z,6.53
2022-09-10T19:37:42.399Z,7.55
2022-09-10T19:40:13.528Z,5.03
2022-09-10T19:42:42.827Z,6.80
2022-09-10T19:45:13.846Z,7.45
2022-09-10T19:47:44.118Z,6.90
2022-09-10T19:50:13.450Z,4.45
2022-09-10T19:52:42.716Z,6.80
2022-09-10T19:55:13.775Z,8.02
2022-09-10T19:57:43.064Z,3.45
2022-09-10T20:00:30.076Z,7.88
2022-09-10T20:03:03.208Z,8.27
2022-09-10T20:05:35.194Z,7.85
2022-09-10T20:08:05.853Z,17.08
2022-09-10T20:10:35.046Z,13.60
2022-09-10T20:13:04.395Z,16.92
2022-09-10T20:15:33.899Z,19.83
2022-09-10T20:18:03.156Z,23.00
2022-09-10T20:20:32.567Z,24.77
2022-09-10T20:23:03.011Z,24.58
2022-09-10T20:25:33.053Z,25.55
2022-09-10T20:28:02.748Z,20.70
2022-09-10T20:30:33.054Z,19.35
2022-09-10T20:33:02.846Z,19.92
2022-09-10T20:35:32.096Z,21.98
2022-09-10T20:38:01.510Z,15.43
2022-09-10T20:40:30.811Z,18.65
2022-09-10T20:42:59.946Z,13.57
2022-09-10T20:45:29.345Z,12.50
2022-09-10T20:48:00.953Z,14.55
2022-09-10T20:50:30.524Z,11.13
2022-09-10T20:52:59.700Z,10.25
2022-09-10T20:55:28.969Z,11.68
2022-09-10T20:57:58.170Z,10.15
2022-09-10T21:00:27.347Z,10.93
2022-09-10T21:02:56.522Z,8.13
2022-09-10T21:05:26.034Z,9.38
2022-09-10T21:07:55.301Z,8.55
2022-09-10T21:10:24.568Z,7.78
2022-09-10T21:12:53.836Z,6.78
2022-09-10T21:15:23.095Z,6.68
2022-09-10T21:17:52.450Z,6.55
2022-09-10T21:20:23.119Z,8.52
2022-09-10T21:22:52.985Z,5.05
2022-09-10T21:25:23.101Z,6.93
2022-09-10T21:27:52.343Z,7.18
2022-09-10T21:30:21.693Z,6.28
2022-09-10T21:32:51.068Z,5.32
2022-09-10T21:35:20.407Z,6.05
2022-09-10T21:37:49.620Z,4.90
2022-09-10T21:40:18.872Z,4.60
2022-09-10T21:42:48.053Z,4.40
2022-09-10T21:45:19.586Z,6.57
2022-09-10T21:47:50.734Z,5.18
2022-09-10T21:50:19.926Z,9.80
2022-09-10T21:52:49.149Z,5.53
2022-09-10T21:55:18.439Z,4.90
2022-09-10T21:57:47.887Z,6.47
2022-09-10T22:00:17.541Z,4.57
2022-09-10T22:02:47.323Z,6.68
2022-09-10T22:05:16.763Z,6.53
2022-09-10T22:07:46.256Z,7.82
2022-09-10T22:10:19.733Z,6.72
2022-09-10T22:12:50.058Z,7.38
2022-09-10T22:15:19.435Z,9.73
2022-09-10T22:17:48.716Z,6.80
2022-09-10T22:20:18.109Z,9.98
2022-09-10T22:22:47.366Z,5.78
2022-09-10T22:25:16.529Z,8.73
2022-09-10T22:27:45.771Z,4.75
2022-09-10T22:30:15.097Z,4.05
2022-09-10T22:32:44.306Z,5.15
2022-09-10T22:35:13.516Z,4.22
2022-09-10T22:37:42.667Z,5.57
2022-09-10T22:40:12.635Z,8.55
2022-09-10T22:42:41.931Z,3.65
2022-09-10T22:45:12.348Z,3.47
2022-09-10T22:47:41.502Z,2.38
2022-09-10T22:50:11.558Z,2.10
2022-09-10T22:52:40.827Z,8.45
2022-09-10T22:55:11.504Z,2.67
2022-09-10T22:57:42.837Z,3.15
2022-09-10T23:00:14.773Z,5.00
2022-09-10T23:02:44.694Z,4.53
2022-09-10T23:05:14.029Z,2.53
2022-09-10T23:07:43.224Z,2.08
2022-09-10T23:10:13.112Z,3.15
2022-09-10T23:12:43.196Z,2.53
2022-09-10T23:15:12.732Z,4.57
2022-09-10T23:17:42.070Z,2.42
2022-09-10T23:20:13.378Z,7.30
2022-09-10T23:22:42.591Z,4.97
2022-09-10T23:25:11.870Z,4.55
2022-09-10T23:27:41.075Z,8.63
2022-09-10T23:30:11.706Z,4.13
2022-09-10T23:32:40.844Z,6.65
2022-09-10T23:35:11.135Z,4.95
2022-09-10T23:37:40.520Z,4.40
2022-09-10T23:40:12.496Z,6.63
2022-09-10T23:42:41.926Z,4.60
2022-09-10T23:45:11.997Z,7.25
2022-09-10T23:47:41.151Z,4.60
2022-09-10T23:50:10.799Z,6.82
2022-09-10T23:52:40.155Z,6.72
2022-09-10T23:55:09.789Z,9.10
2022-09-10T23:57:39.967Z,5.22
